createdAt,value
2023-04-02T00:02:19.634Z,100.00
2023-04-02T00:05:06.215Z,100.00
2023-04-02T00:07:33.296Z,100.00
2023-04-02T00:09:59.919Z,100.00
2023-04-02T00:12:26.506Z,100.00
2023-04-02T00:14:54.634Z,100.00
2023-04-02T00:17:24.667Z,100.00
2023-04-02T00:19:54.526Z,100.00
2023-04-02T00:22:22.779Z,100.00
2023-04-02T00:24:54.263Z,100.00
2023-04-02T00:27:21.427Z,100.00
2023-04-02T00:29:57.888Z,100.00
2023-04-02T00:32:29.254Z,100.00
2023-04-02T00:34:55.921Z,100.00
2023-04-02T00:37:25.105Z,100.00
2023-04-02T00:39:53.341Z,100.00
2023-04-02T00:42:20.259Z,100.00
2023-04-02T00:44:48.958Z,100.00
2023-04-02T00:47:32.760Z,100.00
2023-04-02T00:50:02.582Z,100.00
2023-04-02T00:52:31.913Z,100.00
2023-04-02T00:55:02.620Z,100.00
2023-04-02T00:57:29.732Z,100.00
2023-04-02T01:00:03.612Z,100.00
2023-04-02T01:02:34.225Z,100.00
2023-04-02T01:05:16.000Z,100.00
2023-04-02T01:07:58.738Z,100.00
2023-04-02T01:10:28.276Z,100.00
2023-04-02T01:12:54.812Z,100.00
2023-04-02T01:15:26.068Z,100.00
2023-04-02T01:17:54.725Z,100.00
2023-04-02T01:20:27.672Z,100.00
2023-04-02T01:22:55.062Z,100.00
2023-04-02T01:25:28.543Z,100.00
2023-04-02T01:28:05.623Z,100.00
2023-04-02T01:30:34.866Z,100.00
2023-04-02T01:33:01.542Z,100.00
2023-04-02T01:35:31.482Z,100.00
2023-04-02T01:38:18.979Z,100.00
2023-04-02T01:40:56.715Z,100.00
2023-04-02T01:43:29.126Z,100.00
2023-04-02T01:45:57.428Z,100.00
2023-04-02T01:48:27.447Z,100.00
2023-04-02T01:50:55.681Z,100.00
2023-04-02T01:53:24.931Z,100.00
2023-04-02T01:55:53.182Z,100.00
2023-04-02T01:58:24.064Z,100.00
2023-04-02T02:00:57.025Z,100.00
2023-04-02T02:03:23.882Z,100.00
2023-04-02T02:05:50.955Z,100.00
2023-04-02T02:08:38.591Z,100.00
2023-04-02T02:11:05.777Z,100.00
2023-04-02T02:13:32.349Z,100.00
2023-04-02T02:15:59.376Z,100.00
2023-04-02T02:18:27.607Z,100.00
2023-04-02T02:20:55.343Z,100.00
2023-04-02T02:23:22.295Z,100.00
2023-04-02T02:25:49.532Z,100.00
2023-04-02T02:28:19.096Z,100.00
2023-04-02T02:30:50.969Z,100.00
2023-04-02T02:33:32.849Z,100.00
2023-04-02T02:36:05.497Z,100.00
2023-04-02T02:38:34.999Z,100.00
2023-04-02T02:41:04.596Z,100.00
2023-04-02T02:43:32.634Z,100.00
2023-04-02T02:45:59.685Z,100.00
2023-04-02T02:48:34.151Z,100.00
2023-04-02T02:51:02.256Z,100.00
2023-04-02T02:53:28.913Z,100.00
2023-04-02T02:55:58.149Z,100.00
2023-04-02T02:58:27.485Z,100.00
2023-04-02T03:00:54.537Z,100.00
2023-04-02T03:03:24.065Z,100.00
2023-04-02T03:05:55.265Z,100.00
2023-04-02T03:08:28.500Z,100.00
2023-04-02T03:10:58.063Z,100.00
2023-04-02T03:13:27.356Z,100.00
2023-04-02T03:16:09.249Z,100.00
2023-04-02T03:18:38.968Z,100.00
2023-04-02T03:21:05.526Z,100.00
2023-04-02T03:23:46.361Z,100.00
2023-04-02T03:26:22.853Z,100.00
2023-04-02T03:28:56.350Z,100.00
2023-04-02T03:31:26.590Z,100.00
2023-04-02T03:33:56.885Z,100.00
2023-04-02T03:36:28.568Z,100.00
2023-04-02T03:39:10.090Z,100.00
2023-04-02T03:42:09.156Z,100.00
2023-04-02T03:44:39.282Z,100.00
2023-04-02T03:47:13.099Z,100.00
2023-04-02T03:49:44.447Z,100.00
2023-04-02T03:52:12.299Z,100.00
2023-04-02T03:54:39.624Z,100.00
2023-04-02T03:57:11.912Z,100.00
2023-04-02T03:59:48.982Z,100.00
2023-04-02T04:02:38.630Z,100.00
2023-04-02T04:05:06.874Z,100.00
2023-04-02T04:07:41.537Z,100.00
2023-04-02T04:10:14.674Z,100.00
2023-04-02T04:12:43.830Z,100.00
2023-04-02T04:15:25.728Z,100.00
2023-04-02T04:18:02.413Z,100.00
2023-04-02T04:20:29.151Z,100.00
2023-04-02T04:22:56.116Z,100.00
2023-04-02T04:25:30.375Z,100.00
2023-04-02T04:27:57.119Z,100.00
2023-04-02T04:30:35.011Z,100.00
2023-04-02T04:33:04.846Z,100.00
2023-04-02T04:35:34.284Z,100.00
2023-04-02T04:38:27.723Z,100.00
2023-04-02T04:40:56.632Z,100.00
2023-04-02T04:43:37.466Z,100.00
2023-04-02T04:46:08.332Z,100.00
2023-04-02T04:48:41.642Z,100.00
2023-04-02T04:51:17.239Z,100.00
2023-04-02T04:53:48.347Z,100.00
2023-04-02T04:56:19.574Z,100.00
2023-04-02T04:58:46.512Z,100.00
2023-04-02T05:01:17.467Z,100.00
2023-04-02T05:03:51.928Z,100.00
2023-04-02T05:06:24.762Z,100.00
2023-04-02T05:08:52.833Z,100.00
2023-04-02T05:11:32.542Z,100.00
2023-04-02T05:14:14.522Z,100.00
2023-04-02T05:16:48.951Z,100.00
2023-04-02T05:19:23.755Z,100.00
2023-04-02T05:22:00.503Z,100.00
2023-04-02T05:24:29.976Z,100.00
2023-04-02T05:27:02.945Z,100.00
2023-04-02T05:29:36.589Z,100.00
2023-04-02T05:32:03.562Z,100.00
2023-04-02T05:34:32.861Z,100.00
2023-04-02T05:36:59.552Z,100.00
2023-04-02T05:39:27.124Z,100.00
2023-04-02T05:42:04.888Z,100.00
2023-04-02T05:44:33.442Z,100.00
2023-04-02T05:47:12.280Z,100.00
2023-04-02T05:49:39.303Z,100.00
2023-04-02T05:52:08.157Z,100.00
2023-04-02T05:54:39.747Z,100.00
2023-04-02T05:57:16.227Z,100.00
2023-04-02T05:59:49.523Z,100.00
2023-04-02T06:02:31.070Z,100.00
2023-04-02T06:05:12.610Z,100.00
2023-04-02T06:07:42.161Z,100.00
2023-04-02T06:10:24.595Z,100.00
2023-04-02T06:13:03.536Z,100.00
2023-04-02T06:15:31.499Z,100.00
2023-04-02T06:18:18.818Z,100.00
2023-04-02T06:20:46.195Z,100.00
2023-04-02T06:23:12.761Z,100.00
2023-04-02T06:25:44.856Z,100.00
2023-04-02T06:28:16.691Z,100.00
2023-04-02T06:30:43.650Z,100.00
2023-04-02T06:33:12.020Z,100.00
2023-04-02T06:35:40.356Z,100.00
2023-04-02T06:38:12.346Z,100.00
2023-04-02T06:40:47.657Z,100.00
2023-04-02T06:43:20.826Z,100.00
2023-04-02T06:45:51.683Z,100.00
2023-04-02T06:48:19.497Z,100.00
2023-04-02T06:50:48.640Z,100.00
2023-04-02T06:53:35.907Z,100.00
2023-04-02T06:56:05.613Z,99.81
2023-04-02T06:58:32.184Z,98.73
2023-04-02T07:00:58.815Z,99.49
2023-04-02T07:03:27.198Z,99.16
2023-04-02T07:05:53.955Z,98.74
2023-04-02T07:08:20.893Z,98.48
2023-04-02T07:10:47.701Z,98.38
2023-04-02T07:13:15.902Z,97.95
2023-04-02T07:15:43.200Z,97.79
2023-04-02T07:18:23.803Z,97.89
2023-04-02T07:20:52.045Z,97.58
2023-04-02T07:23:18.751Z,97.23
2023-04-02T07:25:45.347Z,97.79
2023-04-02T07:28:13.521Z,96.88
2023-04-02T07:30:40.464Z,97.14
2023-04-02T07:33:07.051Z,97.66
2023-04-02T07:35:34.873Z,97.13
2023-04-02T07:38:01.647Z,95.65
2023-04-02T07:40:28.185Z,96.86
2023-04-02T07:42:54.815Z,97.17
2023-04-02T07:45:21.394Z,97.11
2023-04-02T07:47:47.943Z,97.17
2023-04-02T07:50:14.732Z,96.91
2023-04-02T07:52:45.267Z,97.17
2023-04-02T07:55:13.001Z,96.63
2023-04-02T07:57:50.347Z,95.18
2023-04-02T08:00:17.441Z,96.13
2023-04-02T08:02:44.020Z,95.71
2023-04-02T08:05:10.792Z,96.21
2023-04-02T08:07:39.034Z,95.53
2023-04-02T08:10:06.609Z,95.32
2023-04-02T08:12:33.206Z,95.76
2023-04-02T08:14:59.844Z,96.03
2023-04-02T08:17:31.286Z,96.17
2023-04-02T08:20:01.757Z,95.40
2023-04-02T08:22:29.009Z,96.29
2023-04-02T08:24:56.445Z,96.27
2023-04-02T08:27:23.802Z,96.33
2023-04-02T08:29:50.946Z,95.89
2023-04-02T08:32:17.953Z,96.17
2023-04-02T08:34:45.083Z,95.97
2023-04-02T08:37:12.139Z,96.44
2023-04-02T08:39:39.193Z,96.13
2023-04-02T08:42:05.976Z,96.35
2023-04-02T08:44:32.512Z,95.81
2023-04-02T08:46:59.058Z,96.23
2023-04-02T08:49:46.009Z,95.87
2023-04-02T08:52:20.932Z,96.30
2023-04-02T08:54:47.812Z,96.33
2023-04-02T08:57:27.330Z,96.17
2023-04-02T09:00:06.188Z,96.22
2023-04-02T09:02:39.558Z,96.28
2023-04-02T09:05:07.555Z,96.33
2023-04-02T09:07:34.901Z,96.03
2023-04-02T09:10:02.855Z,96.12
2023-04-02T09:12:30.995Z,96.36
2023-04-02T09:15:06.787Z,96.54
2023-04-02T09:17:42.738Z,96.33
2023-04-02T09:20:18.013Z,96.10
2023-04-02T09:22:46.205Z,96.03
2023-04-02T09:25:15.005Z,96.34
2023-04-02T09:27:41.800Z,96.39
2023-04-02T09:30:08.915Z,96.72
2023-04-02T09:32:42.245Z,96.35
2023-04-02T09:35:26.261Z,96.35
2023-04-02T09:38:11.839Z,96.38
2023-04-02T09:40:58.431Z,96.30
2023-04-02T09:43:43.105Z,96.46
2023-04-02T09:46:12.823Z,96.48
2023-04-02T09:48:50.170Z,96.63
2023-04-02T09:51:21.760Z,96.41
2023-04-02T09:53:49.672Z,96.45
2023-04-02T09:56:20.135Z,96.53
2023-04-02T09:59:01.966Z,96.51
2023-04-02T10:01:31.191Z,96.54
2023-04-02T10:03:59.435Z,96.45
2023-04-02T10:06:27.618Z,96.21
2023-04-02T10:08:54.497Z,96.11
2023-04-02T10:11:21.506Z,95.96
2023-04-02T10:14:06.161Z,95.99
2023-04-02T10:16:37.002Z,95.19
2023-04-02T10:19:07.186Z,95.37
2023-04-02T10:21:36.225Z,95.46
2023-04-02T10:24:03.533Z,93.91
2023-04-02T10:26:45.818Z,94.27
2023-04-02T10:29:18.472Z,93.16
2023-04-02T10:32:00.455Z,91.08
2023-04-02T10:34:36.461Z,93.44
2023-04-02T10:37:19.977Z,93.58
2023-04-02T10:39:52.103Z,93.62
2023-04-02T10:42:26.725Z,94.06
2023-04-02T10:44:53.269Z,92.59
2023-04-02T10:47:19.828Z,92.58
2023-04-02T10:49:49.348Z,93.27
2023-04-02T10:52:21.334Z,92.53
2023-04-02T10:54:52.752Z,90.58
2023-04-02T10:57:25.168Z,89.12
2023-04-02T11:00:06.065Z,89.58
2023-04-02T11:02:51.266Z,86.89
2023-04-02T11:05:18.052Z,90.60
2023-04-02T11:07:57.489Z,90.71
2023-04-02T11:10:25.940Z,88.88
2023-04-02T11:12:57.181Z,87.83
2023-04-02T11:15:24.155Z,87.04
2023-04-02T11:17:51.640Z,88.00
2023-04-02T11:20:47.921Z,84.97
2023-04-02T11:23:27.485Z,87.91
2023-04-02T11:26:13.993Z,87.28
2023-04-02T11:28:41.296Z,85.65
2023-04-02T11:31:08.030Z,86.87
2023-04-02T11:33:38.628Z,86.90
2023-04-02T11:36:25.119Z,86.71
2023-04-02T11:38:52.921Z,84.20
2023-04-02T11:41:45.692Z,84.69
2023-04-02T11:44:23.016Z,86.25
2023-04-02T11:46:49.651Z,86.67
2023-04-02T11:49:36.467Z,86.15
2023-04-02T11:52:11.979Z,86.35
2023-04-02T11:54:39.453Z,85.84
2023-04-02T11:57:30.656Z,86.04
2023-04-02T12:00:17.561Z,85.03
2023-04-02T12:02:57.145Z,84.83
2023-04-02T12:05:23.759Z,85.90
2023-04-02T12:07:53.415Z,85.61
2023-04-02T12:10:21.976Z,86.01
2023-04-02T12:12:49.224Z,85.92
2023-04-02T12:15:24.668Z,86.23
2023-04-02T12:17:51.434Z,86.08
2023-04-02T12:20:27.470Z,85.30
2023-04-02T12:22:55.758Z,84.90
2023-04-02T12:25:32.780Z,84.35
2023-04-02T12:28:11.530Z,84.93
2023-04-02T12:30:38.772Z,83.71
2023-04-02T12:33:15.764Z,83.89
2023-04-02T12:35:43.492Z,83.86
2023-04-02T12:38:20.408Z,82.47
2023-04-02T12:41:13.463Z,82.53
2023-04-02T12:43:40.153Z,82.71
2023-04-02T12:46:07.853Z,79.45
2023-04-02T12:48:35.167Z,81.80
2023-04-02T12:51:02.921Z,79.77
2023-04-02T12:53:36.659Z,79.69
2023-04-02T12:56:03.802Z,80.76
2023-04-02T12:58:33.449Z,81.84
2023-04-02T13:01:12.321Z,81.98
2023-04-02T13:03:38.916Z,81.48
2023-04-02T13:06:18.597Z,80.81
2023-04-02T13:08:45.127Z,79.88
2023-04-02T13:11:11.809Z,81.12
2023-04-02T13:13:42.742Z,81.06
2023-04-02T13:16:15.318Z,81.29
2023-04-02T13:18:42.727Z,81.01
2023-04-02T13:21:21.672Z,79.55
2023-04-02T13:23:48.212Z,79.46
2023-04-02T13:26:17.438Z,80.46
2023-04-02T13:28:55.375Z,80.35
2023-04-02T13:31:22.187Z,79.85
2023-04-02T13:33:48.828Z,80.06
2023-04-02T13:36:15.782Z,80.01
2023-04-02T13:38:42.361Z,79.92
2023-04-02T13:41:28.090Z,80.37
2023-04-02T13:43:55.344Z,80.47
2023-04-02T13:46:23.330Z,80.79
2023-04-02T13:48:50.518Z,78.92
2023-04-02T13:51:18.411Z,80.38
2023-04-02T13:53:46.969Z,79.01
2023-04-02T13:56:13.697Z,80.47
2023-04-02T13:58:40.267Z,81.20
2023-04-02T14:01:06.953Z,80.28
2023-04-02T14:03:34.517Z,80.74
2023-04-02T14:06:04.096Z,80.76
2023-04-02T14:08:42.775Z,77.96
2023-04-02T14:11:25.015Z,78.71
2023-04-02T14:13:57.646Z,80.51
2023-04-02T14:16:28.081Z,80.04
2023-04-02T14:19:13.814Z,80.81
2023-04-02T14:21:40.355Z,80.39
2023-04-02T14:24:16.278Z,80.53
2023-04-02T14:27:06.343Z,80.12
2023-04-02T14:29:41.530Z,77.59
2023-04-02T14:32:11.589Z,78.04
2023-04-02T14:34:54.043Z,77.37
2023-04-02T14:37:27.237Z,79.33
2023-04-02T14:39:57.397Z,80.25
2023-04-02T14:42:27.147Z,80.46
2023-04-02T14:45:02.459Z,80.38
2023-04-02T14:48:02.932Z,80.14
2023-04-02T14:50:38.892Z,80.14
2023-04-02T14:53:12.400Z,80.65
2023-04-02T14:55:42.796Z,78.05
2023-04-02T14:58:15.665Z,80.76
2023-04-02T15:00:45.746Z,79.74
2023-04-02T15:03:16.325Z,81.00
2023-04-02T15:05:49.847Z,81.31
2023-04-02T15:08:22.774Z,81.43
2023-04-02T15:10:56.252Z,81.11
2023-04-02T15:13:30.609Z,81.79
2023-04-02T15:16:04.306Z,81.42
2023-04-02T15:18:31.173Z,82.15
2023-04-02T15:20:57.693Z,82.09
2023-04-02T15:23:50.632Z,81.79
2023-04-02T15:26:23.436Z,82.12
2023-04-02T15:28:55.344Z,82.01
2023-04-02T15:31:24.366Z,82.05
2023-04-02T15:33:55.415Z,82.17
2023-04-02T15:36:29.572Z,81.95
2023-04-02T15:38:58.933Z,82.28
2023-04-02T15:41:26.648Z,81.88
2023-04-02T15:44:05.551Z,81.98
2023-04-02T15:46:43.992Z,82.21
2023-04-02T15:49:10.704Z,82.48
2023-04-02T15:51:40.004Z,82.20
2023-04-02T15:54:27.006Z,81.65
2023-04-02T15:57:16.982Z,82.25
2023-04-02T15:59:49.837Z,81.88
2023-04-02T16:02:19.368Z,81.50
2023-04-02T16:04:53.937Z,80.83
2023-04-02T16:07:29.718Z,80.88
2023-04-02T16:09:56.864Z,81.16
2023-04-02T16:12:25.404Z,81.19
2023-04-02T16:14:53.334Z,80.74
2023-04-02T16:17:25.537Z,80.96
2023-04-02T16:20:25.085Z,80.33
2023-04-02T16:23:26.977Z,80.85
2023-04-02T16:26:08.171Z,81.02
2023-04-02T16:28:43.259Z,80.96
2023-04-02T16:31:21.969Z,81.18
2023-04-02T16:34:07.017Z,81.40
2023-04-02T16:36:52.981Z,81.35
2023-04-02T16:39:22.408Z,81.26
2023-04-02T16:42:07.593Z,81.53
2023-04-02T16:44:43.421Z,82.09
2023-04-02T16:47:22.788Z,82.22
2023-04-02T16:49:52.301Z,82.43
2023-04-02T16:52:37.755Z,82.42
2023-04-02T16:55:07.383Z,82.66
2023-04-02T16:57:34.776Z,82.58
2023-04-02T17:00:19.809Z,82.67
2023-04-02T17:03:18.950Z,82.65
2023-04-02T17:05:57.743Z,82.78
2023-04-02T17:08:30.302Z,82.35
2023-04-02T17:11:01.646Z,82.57
2023-04-02T17:13:47.053Z,82.50
2023-04-02T17:16:20.060Z,82.34
2023-04-02T17:18:47.787Z,82.40
2023-04-02T17:21:17.783Z,81.52
2023-04-02T17:23:55.849Z,81.94
2023-04-02T17:26:28.390Z,82.22
2023-04-02T17:28:57.336Z,82.40
2023-04-02T17:31:25.775Z,82.25
2023-04-02T17:33:52.540Z,81.34
2023-04-02T17:36:19.139Z,82.13
2023-04-02T17:39:06.076Z,82.11
2023-04-02T17:41:44.860Z,81.18
2023-04-02T17:44:17.602Z,82.07
2023-04-02T17:46:44.172Z,82.08
2023-04-02T17:49:11.119Z,80.38
2023-04-02T17:51:37.713Z,81.55
2023-04-02T17:54:04.306Z,81.21
2023-04-02T17:56:38.255Z,81.46
2023-04-02T17:59:23.787Z,81.33
2023-04-02T18:01:50.729Z,80.85
2023-04-02T18:04:26.400Z,81.24
2023-04-02T18:07:07.403Z,80.64
2023-04-02T18:09:34.003Z,81.31
2023-04-02T18:12:20.504Z,81.62
2023-04-02T18:14:53.142Z,81.53
2023-04-02T18:17:19.707Z,81.74
2023-04-02T18:19:46.293Z,81.71
2023-04-02T18:22:15.696Z,81.30
2023-04-02T18:24:59.196Z,81.50
2023-04-02T18:27:31.048Z,81.71
2023-04-02T18:29:57.679Z,81.62
2023-04-02T18:32:24.321Z,80.64
2023-04-02T18:34:58.012Z,81.37
2023-04-02T18:38:08.748Z,81.53
2023-04-02T18:40:38.611Z,81.41
2023-04-02T18:43:24.823Z,81.64
2023-04-02T18:45:54.376Z,81.78
2023-04-02T18:48:41.070Z,81.69
2023-04-02T18:51:22.065Z,80.82
2023-04-02T18:54:11.959Z,81.50
2023-04-02T18:56:39.718Z,81.90
2023-04-02T18:59:14.730Z,81.86
2023-04-02T19:01:46.717Z,81.56
2023-04-02T19:04:16.646Z,81.81
2023-04-02T19:06:44.625Z,81.53
2023-04-02T19:09:15.174Z,81.80
2023-04-02T19:11:41.771Z,81.29
2023-04-02T19:14:12.920Z,81.70
2023-04-02T19:16:45.803Z,81.74
2023-04-02T19:19:18.912Z,81.94
2023-04-02T19:21:51.695Z,81.72
2023-04-02T19:24:27.403Z,81.96
2023-04-02T19:26:57.193Z,82.05
2023-04-02T19:29:26.873Z,81.90
2023-04-02T19:31:58.340Z,82.15
2023-04-02T19:34:46.330Z,82.37
2023-04-02T19:37:16.862Z,82.49
2023-04-02T19:40:02.857Z,82.31
2023-04-02T19:42:35.873Z,82.47
2023-04-02T19:45:02.880Z,82.87
2023-04-02T19:47:29.755Z,82.56
2023-04-02T19:49:56.489Z,82.57
2023-04-02T19:52:23.088Z,82.62
2023-04-02T19:54:49.655Z,82.92
2023-04-02T19:57:17.288Z,82.76
2023-04-02T19:59:43.972Z,82.58
2023-04-02T20:02:11.164Z,82.64
2023-04-02T20:04:40.835Z,82.61
2023-04-02T20:07:07.782Z,82.47
2023-04-02T20:09:34.407Z,82.61
2023-04-02T20:12:01.062Z,82.62
2023-04-02T20:14:29.593Z,82.65
2023-04-02T20:16:56.328Z,82.59
2023-04-02T20:19:23.117Z,82.71
2023-04-02T20:21:49.751Z,82.72
2023-04-02T20:24:16.341Z,83.04
2023-04-02T20:26:42.971Z,83.01
2023-04-02T20:29:09.577Z,83.09
2023-04-02T20:31:36.388Z,83.28
2023-04-02T20:34:05.419Z,83.07
2023-04-02T20:36:32.357Z,83.45
2023-04-02T20:38:59.081Z,83.61
2023-04-02T20:41:26.646Z,83.56
2023-04-02T20:43:53.742Z,83.58
2023-04-02T20:46:20.810Z,83.61
2023-04-02T20:48:47.536Z,83.83
2023-04-02T20:51:15.343Z,83.92
2023-04-02T20:53:42.269Z,83.90
2023-04-02T20:56:10.938Z,84.07
2023-04-02T20:58:38.012Z,84.11
2023-04-02T21:01:07.622Z,84.07
2023-04-02T21:03:34.475Z,84.21
2023-04-02T21:06:01.158Z,84.17
2023-04-02T21:08:27.840Z,84.20
2023-04-02T21:11:01.002Z,84.01
2023-04-02T21:13:29.130Z,84.22
2023-04-02T21:15:56.013Z,84.26
2023-04-02T21:18:22.829Z,84.43
2023-04-02T21:21:04.350Z,84.43
2023-04-02T21:23:31.248Z,84.41
2023-04-02T21:25:58.449Z,84.69
2023-04-02T21:28:25.465Z,84.84
2023-04-02T21:30:52.186Z,84.72
2023-04-02T21:33:18.911Z,84.84
2023-04-02T21:35:45.756Z,84.86
2023-04-02T21:38:12.552Z,84.73
2023-04-02T21:40:40.119Z,84.63
2023-04-02T21:43:08.886Z,84.57
2023-04-02T21:45:35.820Z,84.26
2023-04-02T21:48:02.682Z,84.33
2023-04-02T21:50:29.358Z,84.33
2023-04-02T21:52:56.083Z,84.45
2023-04-02T21:55:22.692Z,84.51
2023-04-02T21:57:49.274Z,84.46
2023-04-02T22:00:15.942Z,84.63
2023-04-02T22:02:42.619Z,84.74
2023-04-02T22:05:09.380Z,84.84
2023-04-02T22:07:35.987Z,84.95
2023-04-02T22:10:02.589Z,85.01
2023-04-02T22:12:30.065Z,85.28
2023-04-02T22:14:56.593Z,85.21
2023-04-02T22:17:23.202Z,85.31
2023-04-02T22:19:49.773Z,85.40
2023-04-02T22:22:16.312Z,85.42
2023-04-02T22:24:42.869Z,85.47
2023-04-02T22:27:09.448Z,85.50
2023-04-02T22:29:36.032Z,85.58
2023-04-02T22:32:02.665Z,85.71
2023-04-02T22:34:29.322Z,85.79
2023-04-02T22:36:56.131Z,85.76
2023-04-02T22:39:22.736Z,85.83
2023-04-02T22:41:49.298Z,85.82
2023-04-02T22:44:16.065Z,85.62
2023-04-02T22:46:42.765Z,85.87
2023-04-02T22:49:11.048Z,85.90
2023-04-02T22:51:37.583Z,86.21
2023-04-02T22:54:04.190Z,86.18
2023-04-02T22:56:35.375Z,86.15
2023-04-02T22:59:01.854Z,86.26
2023-04-02T23:01:30.482Z,86.44
2023-04-02T23:03:57.119Z,86.65
2023-04-02T23:06:24.775Z,86.45
2023-04-02T23:08:51.434Z,86.64
2023-04-02T23:11:22.255Z,86.73
2023-04-02T23:13:50.045Z,87.06
2023-04-02T23:16:17.127Z,87.15
2023-04-02T23:18:45.780Z,87.29
2023-04-02T23:21:12.375Z,87.22
2023-04-02T23:23:39.088Z,87.50
2023-04-02T23:26:07.385Z,87.62
2023-04-02T23:28:34.919Z,87.77
2023-04-02T23:31:02.498Z,88.13
2023-04-02T23:33:29.229Z,88.15
2023-04-02T23:35:55.804Z,88.27
2023-04-02T23:38:22.498Z,88.56
2023-04-02T23:40:49.048Z,88.56
2023-04-02T23:43:15.722Z,88.65
2023-04-02T23:45:46.154Z,89.06
2023-04-02T23:48:12.784Z,89.32
2023-04-02T23:50:39.337Z,89.63
2023-04-02T23:53:05.864Z,89.81
2023-04-02T23:55:32.594Z,90.05
2023-04-02T23:57:59.154Z,90.12
